Bronderslev, Denmark
Current Conditions -  °F | °C
As of 11:20 AM on Thursday 23 Oct 2014 (Local Time) from EKYT Reporting Station
Light Rain Light Rain  
Wind Chill: 54°   Ceiling: 7300
Heat Index: 54°   Visibility: 6mi
Dew Point: 48°   Wind: 8mph
Humidity: 82%   Direction: 170°S
Pressure: 30.06"   Gusts: NA
Location:  57.27°N, 9.94°E
Report Text: EKYT 230920Z 17007KT 9999 -RA FEW028 BKN073 12/09 Q1018
Loading
Personal Weather Stations






























Interactive Weather Map
Tropical Storm Tracking
New forecast layout! Learn more

10-Day Weather Forecast

Advertisements
Track Severe Weather on mobile